Time;durP1;ratioP1;P1;durP2;ratioP2;P2;SDS_P1;SDS_P2;PMS_P1;PMS_P2;Temp;Humidity;BMP_temperature;BMP_pressure;BME280_temperature;BME280_humidity;BME280_pressure;Samples;Min_cycle;Max_cycle;Signal;HPM_P1;HPM_P2
2022/01/21 00:00:13;;;;;;;0.98;0.40;;;23.90;30.70;;;;;;5025821;28;20033;-43
2022/01/21 00:02:39;;;;;;;0.98;0.40;;;23.90;30.70;;;;;;5025022;28;20493;-44
2022/01/21 00:05:06;;;;;;;0.90;0.45;;;23.80;30.60;;;;;;5026061;28;20093;-44
2022/01/21 00:07:32;;;;;;;0.90;0.40;;;23.90;30.70;;;;;;5025329;28;20491;-44
2022/01/21 00:09:57;;;;;;;1.38;0.47;;;23.80;30.60;;;;;;5024907;28;20037;-44
2022/01/21 00:12:24;;;;;;;1.63;0.60;;;23.80;30.60;;;;;;5023762;28;20087;-44
2022/01/21 00:14:50;;;;;;;1.00;0.40;;;23.80;30.60;;;;;;5025083;28;20029;-44
2022/01/21 00:17:18;;;;;;;1.58;0.60;;;23.80;30.50;;;;;;5026326;28;20522;-43
2022/01/21 00:19:46;;;;;;;1.90;0.63;;;23.80;30.50;;;;;;5026520;28;20045;-43
2022/01/21 00:30:26;;;;;;;0.85;0.40;;;23.70;30.60;;;;;;5025388;28;20044;-43
2022/01/21 00:32:53;;;;;;;0.80;0.40;;;23.70;30.60;;;;;;5023194;28;20782;-43
2022/01/21 00:35:20;;;;;;;0.73;0.30;;;23.70;30.50;;;;;;5024820;28;20033;-44
2022/01/21 00:37:47;;;;;;;1.25;0.30;;;23.70;30.60;;;;;;5022755;28;20041;-44
2022/01/21 00:40:18;;;;;;;1.08;0.40;;;23.70;30.60;;;;;;5024759;28;20432;-44
2022/01/21 00:45:15;;;;;;;2.35;0.52;;;23.60;30.50;;;;;;5023325;28;20750;-43
2022/01/21 00:47:42;;;;;;;0.73;0.32;;;23.60;30.50;;;;;;5024741;28;20044;-43
2022/01/21 00:50:08;;;;;;;1.27;0.40;;;23.60;30.30;;;;;;5024799;28;20064;-43
2022/01/21 00:52:35;;;;;;;0.90;0.30;;;23.60;30.40;;;;;;5025090;28;20112;-44
2022/01/21 00:55:01;;;;;;;0.95;0.40;;;23.60;30.40;;;;;;5023741;28;20029;-44
2022/01/21 00:57:27;;;;;;;1.00;0.30;;;23.60;30.40;;;;;;5024048;28;20440;-44
2022/01/21 00:59:52;;;;;;;0.75;0.35;;;23.50;30.40;;;;;;5023075;28;20037;-43
2022/01/21 01:02:18;;;;;;;1.23;0.40;;;23.50;30.40;;;;;;5024690;28;20124;-44
2022/01/21 01:04:44;;;;;;;1.73;0.55;;;23.50;30.40;;;;;;5025285;28;20025;-43
2022/01/21 01:07:09;;;;;;;1.00;0.40;;;23.50;30.40;;;;;;5024038;28;20113;-44
2022/01/21 01:09:36;;;;;;;0.70;0.25;;;23.50;30.40;;;;;;5024976;28;20029;-44
2022/01/21 01:20:13;;;;;;;1.08;0.30;;;23.50;30.40;;;;;;5023688;28;20633;-44
2022/01/21 01:27:53;;;;;;;1.23;0.30;;;23.40;30.30;;;;;;5024362;28;20029;-44
2022/01/21 01:30:22;;;;;;;1.23;0.45;;;23.40;30.30;;;;;;5024055;28;20033;-44
2022/01/21 01:32:49;;;;;;;1.17;0.38;;;23.40;30.30;;;;;;5024431;28;20029;-43
2022/01/21 01:35:18;;;;;;;1.38;0.38;;;23.30;30.20;;;;;;5023672;28;20045;-44
2022/01/21 01:40:30;;;;;;;0.60;0.30;;;23.30;30.30;;;;;;5023478;28;20041;-44
2022/01/21 01:50:56;;;;;;;1.38;0.43;;;23.30;30.30;;;;;;5024634;28;20048;-44
2022/01/21 01:53:37;;;;;;;1.17;0.30;;;23.30;30.20;;;;;;5023998;28;20553;-44
2022/01/21 01:56:06;;;;;;;0.60;0.20;;;23.30;30.20;;;;;;5024128;28;20100;-44
2022/01/21 01:58:40;;;;;;;1.10;0.30;;;23.20;30.20;;;;;;5024024;28;20083;-43
2022/01/21 02:01:06;;;;;;;1.33;0.50;;;23.20;30.20;;;;;;5024454;28;20068;-44
2022/01/21 02:03:33;;;;;;;1.20;0.40;;;23.20;30.20;;;;;;5023404;28;20022;-44
2022/01/21 02:06:00;;;;;;;1.35;0.50;;;23.20;30.20;;;;;;5023262;28;20025;-44
2022/01/21 02:08:27;;;;;;;1.15;0.32;;;23.20;30.30;;;;;;5038024;28;20048;-44
2022/01/21 02:10:52;;;;;;;0.98;0.40;;;23.20;30.20;;;;;;5024043;28;20478;-44
2022/01/21 02:13:25;;;;;;;0.30;0.20;;;23.20;30.20;;;;;;5028165;28;20032;-44
2022/01/21 02:16:08;;;;;;;0.40;0.20;;;23.20;30.20;;;;;;5028450;28;20033;-43
2022/01/21 02:23:54;;;;;;;0.73;0.30;;;23.10;30.20;;;;;;5008244;28;20018;-43
2022/01/21 02:26:21;;;;;;;0.68;0.25;;;23.10;30.30;;;;;;5006670;28;20415;-43
2022/01/21 02:28:47;;;;;;;0.88;0.30;;;23.10;30.40;;;;;;5021483;28;20029;-44
2022/01/21 02:31:13;;;;;;;0.82;0.30;;;23.10;30.40;;;;;;5027528;28;20539;-43
2022/01/21 02:33:38;;;;;;;0.60;0.30;;;23.10;30.40;;;;;;5027719;28;20033;-44
2022/01/21 02:36:04;;;;;;;0.30;0.20;;;23.00;30.30;;;;;;5027462;28;20064;-44
2022/01/21 02:38:30;;;;;;;0.85;0.30;;;23.00;30.20;;;;;;5027107;28;20406;-43
2022/01/21 02:40:56;;;;;;;1.05;0.35;;;23.00;30.30;;;;;;5027386;28;20044;-44
2022/01/21 02:43:23;;;;;;;0.65;0.20;;;23.10;30.40;;;;;;5027194;28;20034;-43
2022/01/21 02:45:48;;;;;;;0.73;0.20;;;23.00;30.30;;;;;;5027341;28;20148;-44
2022/01/21 02:48:14;;;;;;;0.90;0.32;;;23.00;30.20;;;;;;5026013;28;20623;-43
2022/01/21 02:50:41;;;;;;;1.17;0.20;;;23.00;30.30;;;;;;5027079;28;20026;-45
2022/01/21 02:55:38;;;;;;;1.20;0.38;;;23.00;30.30;;;;;;5027194;28;20658;-44
2022/01/21 02:58:04;;;;;;;0.88;0.30;;;23.00;30.30;;;;;;5026187;28;20030;-43
2022/01/21 03:00:29;;;;;;;0.63;0.30;;;23.00;30.30;;;;;;5025409;28;20025;-44
2022/01/21 03:02:55;;;;;;;1.08;0.30;;;23.00;30.40;;;;;;5025887;28;20061;-42
2022/01/21 03:05:21;;;;;;;0.57;0.20;;;22.90;30.30;;;;;;5026710;28;20397;-44
2022/01/21 03:07:48;;;;;;;1.35;0.60;;;22.90;30.40;;;;;;5026393;28;20049;-43
2022/01/21 03:10:15;;;;;;;0.55;0.20;;;22.90;30.40;;;;;;5026732;28;20029;-43
2022/01/21 03:12:42;;;;;;;1.45;0.30;;;22.90;30.50;;;;;;5027047;28;20026;-44
2022/01/21 03:15:08;;;;;;;0.45;0.20;;;22.90;30.50;;;;;;5026516;28;20021;-44
2022/01/21 03:17:35;;;;;;;0.68;0.30;;;22.90;30.40;;;;;;5026370;28;20121;-44
2022/01/21 03:20:01;;;;;;;0.40;0.22;;;22.90;30.40;;;;;;5025443;28;20496;-44
2022/01/21 03:22:26;;;;;;;0.63;0.22;;;22.90;30.50;;;;;;5024237;28;20052;-43
2022/01/21 03:24:52;;;;;;;0.68;0.25;;;22.90;30.40;;;;;;5026192;28;20370;-43
2022/01/21 03:27:18;;;;;;;1.25;0.40;;;22.90;30.40;;;;;;5025679;28;20241;-44
2022/01/21 03:29:44;;;;;;;1.25;0.45;;;22.90;30.40;;;;;;5026071;28;20025;-43
2022/01/21 03:32:10;;;;;;;0.85;0.30;;;22.80;30.30;;;;;;5026532;28;20032;-43
2022/01/21 03:34:36;;;;;;;1.17;0.40;;;22.80;30.30;;;;;;5026131;28;20025;-43
2022/01/21 03:37:03;;;;;;;0.98;0.30;;;22.80;30.20;;;;;;5025783;28;20137;-43
2022/01/21 03:39:28;;;;;;;0.70;0.35;;;22.80;30.30;;;;;;5026120;28;20026;-44
2022/01/21 03:41:54;;;;;;;0.88;0.20;;;22.80;30.30;;;;;;5025999;28;20036;-42
2022/01/21 03:44:20;;;;;;;1.00;0.40;;;22.80;30.30;;;;;;5025927;28;20022;-43
2022/01/21 03:46:46;;;;;;;0.95;0.25;;;22.80;30.30;;;;;;5025357;28;20129;-44
2022/01/21 03:49:12;;;;;;;0.90;0.28;;;22.80;30.30;;;;;;5025673;28;20096;-44
2022/01/21 03:51:38;;;;;;;0.95;0.30;;;22.80;30.30;;;;;;5025527;28;20599;-44
2022/01/21 03:54:04;;;;;;;1.63;0.40;;;22.80;30.30;;;;;;5026004;28;20033;-43
2022/01/21 03:56:30;;;;;;;1.15;0.40;;;22.80;30.30;;;;;;5024328;28;20033;-44
2022/01/21 03:58:56;;;;;;;0.55;0.20;;;22.70;30.30;;;;;;5025409;28;20546;-44
2022/01/21 04:01:24;;;;;;;0.70;0.20;;;22.70;30.40;;;;;;5025728;28;20520;-43
2022/01/21 04:03:51;;;;;;;0.75;0.30;;;22.70;30.40;;;;;;5025739;28;20091;-43
2022/01/21 04:06:17;;;;;;;0.95;0.38;;;22.70;30.40;;;;;;5025606;28;20025;-43
2022/01/21 04:08:42;;;;;;;0.88;0.30;;;22.70;30.40;;;;;;5025346;28;20104;-43
2022/01/21 04:11:08;;;;;;;1.52;0.50;;;22.70;30.50;;;;;;5025800;28;20041;-43
2022/01/21 04:13:34;;;;;;;0.88;0.30;;;22.70;30.50;;;;;;5025542;28;20481;-43
2022/01/21 04:16:01;;;;;;;0.82;0.32;;;22.70;30.50;;;;;;5025790;28;20037;-43
2022/01/21 04:18:27;;;;;;;0.90;0.30;;;22.60;30.50;;;;;;5025441;28;20107;-43
2022/01/21 04:20:53;;;;;;;0.70;0.17;;;22.60;30.50;;;;;;5025995;28;20448;-43
2022/01/21 04:23:20;;;;;;;1.23;0.43;;;22.60;30.50;;;;;;5025278;28;20099;-43
2022/01/21 04:25:47;;;;;;;0.93;0.40;;;22.60;30.50;;;;;;5025244;28;20116;-43
2022/01/21 04:28:13;;;;;;;1.05;0.38;;;22.60;30.40;;;;;;5024680;28;20029;-44
2022/01/21 04:30:39;;;;;;;0.60;0.30;;;22.60;30.40;;;;;;5025060;28;20021;-43
2022/01/21 04:33:05;;;;;;;0.75;0.40;;;22.60;30.40;;;;;;5025601;28;20689;-43
2022/01/21 04:35:32;;;;;;;1.30;0.50;;;22.60;30.30;;;;;;5024975;28;20131;-43
2022/01/21 04:38:03;;;;;;;1.65;0.40;;;22.60;30.30;;;;;;5024978;28;20040;-44
2022/01/21 04:40:32;;;;;;;1.52;0.43;;;22.60;30.30;;;;;;5023824;28;20473;-43
2022/01/21 04:48:29;;;;;;;1.40;0.28;;;22.60;30.30;;;;;;5024903;28;20111;-43
2022/01/21 04:51:12;;;;;;;0.60;0.22;;;22.50;30.30;;;;;;5025303;28;20028;-43
2022/01/21 04:53:39;;;;;;;1.33;0.30;;;22.60;30.40;;;;;;5024945;28;20030;-43
2022/01/21 04:56:05;;;;;;;0.50;0.20;;;22.50;30.30;;;;;;5025190;28;20056;-43
2022/01/21 04:58:31;;;;;;;0.70;0.40;;;22.50;30.30;;;;;;5024775;28;20501;-43
2022/01/21 05:00:57;;;;;;;1.15;0.50;;;22.50;30.30;;;;;;5025071;28;20061;-42
2022/01/21 05:03:23;;;;;;;0.70;0.20;;;22.50;30.30;;;;;;5024939;28;20105;-43
2022/01/21 05:05:49;;;;;;;1.83;0.28;;;22.50;30.40;;;;;;5024964;28;20060;-43
2022/01/21 05:08:29;;;;;;;0.90;0.30;;;22.50;30.40;;;;;;5023792;28;20029;-44
2022/01/21 05:10:55;;;;;;;0.80;0.28;;;22.50;30.40;;;;;;5024111;28;20029;-44
2022/01/21 05:13:24;;;;;;;1.45;0.40;;;22.50;30.50;;;;;;5023982;28;20044;-43
2022/01/21 05:16:07;;;;;;;0.68;0.40;;;22.40;30.50;;;;;;5023151;28;20026;-43
2022/01/21 05:18:33;;;;;;;0.45;0.20;;;22.40;30.50;;;;;;5024222;28;20030;-43
2022/01/21 05:20:59;;;;;;;1.08;0.20;;;22.40;30.60;;;;;;5023867;28;20083;-43
2022/01/21 05:23:26;;;;;;;0.82;0.20;;;22.40;30.70;;;;;;5022967;28;20133;-43
2022/01/21 05:25:52;;;;;;;1.08;0.40;;;22.40;30.70;;;;;;5023828;28;20041;-43
2022/01/21 05:28:18;;;;;;;0.80;0.30;;;22.40;30.80;;;;;;5023249;28;20835;-43
2022/01/21 05:30:43;;;;;;;0.50;0.30;;;22.50;30.90;;;;;;5024094;28;20033;-43
2022/01/21 05:33:09;;;;;;;0.73;0.30;;;22.50;31.50;;;;;;5023989;28;20025;-42
2022/01/21 05:35:35;;;;;;;1.02;0.38;;;22.50;30.90;;;;;;5024130;28;20056;-43
2022/01/21 05:38:00;;;;;;;0.90;0.30;;;22.50;30.90;;;;;;5023411;28;20048;-43
2022/01/21 05:40:26;;;;;;;0.73;0.28;;;22.50;31.10;;;;;;5024255;28;20646;-43
2022/01/21 05:42:52;;;;;;;1.25;0.30;;;22.60;31.00;;;;;;5023589;28;20692;-43
2022/01/21 05:48:02;;;;;;;0.93;0.30;;;22.70;31.10;;;;;;5027323;28;20052;-43
2022/01/21 05:50:28;;;;;;;1.67;0.32;;;22.80;31.00;;;;;;5028302;28;20022;-43
2022/01/21 05:52:55;;;;;;;1.10;0.30;;;22.90;31.00;;;;;;5028415;28;20044;-42
2022/01/21 05:55:21;;;;;;;1.27;0.30;;;22.90;30.90;;;;;;5028039;28;20027;-43
2022/01/21 05:57:47;;;;;;;1.55;0.38;;;23.00;30.80;;;;;;5025868;28;20064;-42
2022/01/21 06:00:13;;;;;;;0.30;0.10;;;23.10;30.80;;;;;;5026627;28;20033;-42
2022/01/21 06:02:39;;;;;;;0.75;0.35;;;23.20;30.70;;;;;;5027666;28;20096;-42
2022/01/21 06:05:06;;;;;;;0.90;0.30;;;23.30;30.60;;;;;;5026184;28;20123;-43
2022/01/21 06:07:32;;;;;;;1.30;0.30;;;23.30;30.50;;;;;;5026386;28;20755;-44
2022/01/21 06:09:58;;;;;;;0.88;0.30;;;23.50;30.50;;;;;;5014084;28;20117;-45
2022/01/21 06:12:23;;;;;;;0.93;0.30;;;23.50;30.30;;;;;;5023300;28;20075;-43
2022/01/21 06:14:50;;;;;;;1.05;0.30;;;23.60;30.20;;;;;;5020993;28;20026;-43
2022/01/21 06:17:15;;;;;;;1.08;0.35;;;23.70;30.30;;;;;;5022897;28;20814;-43
2022/01/21 06:19:42;;;;;;;0.57;0.20;;;23.70;30.10;;;;;;5021999;28;20037;-44
2022/01/21 06:22:08;;;;;;;1.48;0.47;;;23.80;30.10;;;;;;5020926;28;20038;-44
2022/01/21 06:24:33;;;;;;;1.02;0.30;;;23.80;30.10;;;;;;5023700;28;20025;-42
2022/01/21 06:27:02;;;;;;;2.78;0.40;;;23.90;30.00;;;;;;5024713;28;20661;-43
2022/01/21 06:29:28;;;;;;;0.77;0.25;;;24.00;30.50;;;;;;5024420;28;20030;-43
2022/01/21 06:31:54;;;;;;;2.85;0.95;;;24.00;30.60;;;;;;5026545;28;20029;-44
2022/01/21 06:34:20;;;;;;;2.58;0.70;;;24.10;30.70;;;;;;5024222;28;20075;-43
2022/01/21 06:36:46;;;;;;;3.67;0.73;;;24.10;30.70;;;;;;5026233;28;20029;-43
2022/01/21 06:39:11;;;;;;;4.63;1.00;;;24.20;30.50;;;;;;5024484;28;20037;-43
2022/01/21 06:41:37;;;;;;;3.83;1.17;;;24.30;30.70;;;;;;5024950;28;20552;-43
2022/01/21 06:44:04;;;;;;;3.35;1.02;;;24.30;30.60;;;;;;5024905;28;20046;-43
2022/01/21 06:46:30;;;;;;;10.88;3.25;;;24.40;30.60;;;;;;5025271;28;20026;-43
2022/01/21 06:48:56;;;;;;;22.63;6.65;;;24.40;30.70;;;;;;5024239;28;20160;-43
2022/01/21 06:51:22;;;;;;;13.25;4.55;;;24.50;30.70;;;;;;5025975;28;20025;-44
2022/01/21 06:53:47;;;;;;;10.35;3.92;;;24.50;30.50;;;;;;5025694;28;20037;-43
2022/01/21 06:56:14;;;;;;;13.15;4.60;;;24.50;30.40;;;;;;5025482;28;20477;-43
2022/01/21 06:58:39;;;;;;;13.88;4.88;;;24.50;30.40;;;;;;5022375;28;20569;-43
2022/01/21 07:01:05;;;;;;;7.97;2.88;;;24.50;30.60;;;;;;5023573;28;20025;-44
2022/01/21 07:03:31;;;;;;;7.15;2.70;;;24.50;30.60;;;;;;5024592;28;20032;-43
2022/01/21 07:05:57;;;;;;;11.43;3.53;;;24.50;30.40;;;;;;5024308;28;20038;-43
2022/01/21 07:08:23;;;;;;;9.48;3.10;;;24.50;30.40;;;;;;5024560;28;20025;-43
2022/01/21 07:10:48;;;;;;;7.25;2.78;;;24.50;30.30;;;;;;5023748;28;20516;-44
2022/01/21 07:13:14;;;;;;;7.68;2.40;;;24.60;30.00;;;;;;5038607;28;20030;-44
2022/01/21 07:15:40;;;;;;;6.93;2.25;;;24.60;30.40;;;;;;5025167;28;20025;-44
2022/01/21 07:18:06;;;;;;;6.88;2.40;;;24.60;30.40;;;;;;5023834;28;20029;-44
2022/01/21 07:20:32;;;;;;;7.25;2.15;;;24.70;30.40;;;;;;5020948;28;20147;-44
2022/01/21 07:22:58;;;;;;;32.95;9.98;;;24.70;30.20;;;;;;5012666;28;20029;-43
2022/01/21 07:25:23;;;;;;;37.90;11.98;;;24.80;30.60;;;;;;5024513;28;20108;-44
2022/01/21 07:27:50;;;;;;;32.45;12.98;;;24.80;30.60;;;;;;5036323;28;20056;-42
2022/01/21 07:30:16;;;;;;;38.53;12.27;;;24.90;30.60;;;;;;5024009;28;20532;-43
2022/01/21 07:32:43;;;;;;;29.40;12.00;;;24.90;30.70;;;;;;5025620;28;20032;-43
2022/01/21 07:35:10;;;;;;;30.20;11.40;;;25.00;30.80;;;;;;5020589;28;20034;-44
2022/01/21 07:37:37;;;;;;;32.63;13.52;;;25.00;30.90;;;;;;5024535;28;20056;-43
2022/01/21 07:40:05;;;;;;;29.25;11.45;;;25.00;30.70;;;;;;5024498;28;20485;-44
2022/01/21 07:42:30;;;;;;;32.72;12.32;;;25.00;30.50;;;;;;5026602;28;20040;-44
2022/01/21 07:44:56;;;;;;;28.33;10.60;;;25.10;30.50;;;;;;5026114;28;20033;-43
2022/01/21 07:47:22;;;;;;;26.23;10.38;;;25.10;30.30;;;;;;5026037;28;20041;-43
2022/01/21 07:49:49;;;;;;;20.83;9.55;;;25.10;30.30;;;;;;5026182;28;20022;-43
2022/01/21 07:52:15;;;;;;;23.70;9.20;;;25.10;30.20;;;;;;5025957;28;20116;-44
2022/01/21 07:54:41;;;;;;;20.05;9.35;;;25.10;30.10;;;;;;5007906;28;20030;-43
2022/01/21 07:57:08;;;;;;;20.15;8.88;;;25.10;30.00;;;;;;5025551;28;20026;-43
2022/01/21 07:59:34;;;;;;;19.98;7.40;;;25.10;30.00;;;;;;5025953;28;20209;-43
2022/01/21 08:02:01;;;;;;;15.32;7.15;;;25.10;30.00;;;;;;5025834;28;20030;-43
2022/01/21 08:04:27;;;;;;;18.42;7.82;;;25.10;29.80;;;;;;5026259;28;20033;-43
2022/01/21 08:06:53;;;;;;;18.83;7.63;;;25.10;29.80;;;;;;5024411;28;20017;-44
2022/01/21 08:09:23;;;;;;;13.93;6.13;;;25.10;29.80;;;;;;5024993;28;20565;-43
2022/01/21 08:11:50;;;;;;;15.75;6.03;;;25.10;29.80;;;;;;5026140;28;20032;-44
2022/01/21 08:14:16;;;;;;;15.57;5.97;;;25.20;29.90;;;;;;5025601;28;20029;-43
2022/01/21 08:16:42;;;;;;;15.13;6.35;;;25.20;29.80;;;;;;5025729;28;20056;-43
2022/01/21 08:19:07;;;;;;;11.77;5.68;;;25.20;29.70;;;;;;5024818;28;20116;-43
2022/01/21 08:21:33;;;;;;;11.63;5.65;;;25.20;29.60;;;;;;5023847;28;20100;-43
2022/01/21 08:23:59;;;;;;;10.07;4.40;;;25.20;29.60;;;;;;5024674;28;20033;-43
2022/01/21 08:26:30;;;;;;;10.88;5.03;;;25.30;29.50;;;;;;5023056;28;20036;-41
2022/01/21 08:28:56;;;;;;;10.82;4.75;;;25.30;29.40;;;;;;5023513;28;20087;-40
2022/01/21 08:31:23;;;;;;;10.32;3.83;;;25.20;29.30;;;;;;5024608;28;20028;-42
2022/01/21 08:33:50;;;;;;;9.68;3.70;;;25.20;29.30;;;;;;5025020;28;20656;-42
2022/01/21 08:36:22;;;;;;;7.65;3.38;;;25.20;29.20;;;;;;5023735;28;20029;-40
2022/01/21 08:38:48;;;;;;;10.55;3.40;;;25.30;29.10;;;;;;5024092;28;20474;-42
2022/01/21 08:41:14;;;;;;;8.65;3.80;;;25.30;29.00;;;;;;5024997;28;20182;-43
2022/01/21 08:43:40;;;;;;;6.25;2.72;;;25.20;29.00;;;;;;5024573;28;20595;-42
2022/01/21 08:46:06;;;;;;;8.40;3.08;;;25.20;29.00;;;;;;5024512;28;20501;-42
2022/01/21 08:48:31;;;;;;;6.35;2.58;;;25.30;29.30;;;;;;5025173;28;20095;-40
2022/01/21 08:51:00;;;;;;;7.55;2.78;;;25.30;29.10;;;;;;5025616;28;20393;-42
2022/01/21 08:53:42;;;;;;;7.00;2.90;;;25.30;29.10;;;;;;5022488;28;20097;-41
2022/01/21 08:56:12;;;;;;;6.93;3.03;;;25.30;28.90;;;;;;5008285;28;20661;-42
2022/01/21 08:58:39;;;;;;;6.38;2.40;;;25.30;28.90;;;;;;5024385;28;20500;-41
2022/01/21 09:01:06;;;;;;;7.18;2.75;;;25.30;29.00;;;;;;5014593;28;20026;-41
2022/01/21 09:03:33;;;;;;;5.53;2.42;;;25.30;29.00;;;;;;5004660;28;20129;-41
2022/01/21 09:05:59;;;;;;;7.50;2.97;;;25.30;29.00;;;;;;5003227;28;20029;-40
2022/01/21 09:08:29;;;;;;;7.15;2.47;;;25.30;28.50;;;;;;5011985;28;20053;-41
2022/01/21 09:10:57;;;;;;;5.30;2.08;;;25.30;28.60;;;;;;5024423;28;20744;-42
2022/01/21 09:13:26;;;;;;;4.97;2.13;;;25.20;28.80;;;;;;5024145;28;20029;-41
2022/01/21 09:15:52;;;;;;;5.40;1.95;;;25.30;28.80;;;;;;5023385;28;20064;-42
2022/01/21 09:18:19;;;;;;;6.53;2.28;;;25.30;28.90;;;;;;5022677;28;20052;-40
2022/01/21 09:20:46;;;;;;;5.57;2.25;;;25.30;28.80;;;;;;5022691;28;20042;-43
2022/01/21 09:23:12;;;;;;;5.97;2.20;;;25.20;28.80;;;;;;5022035;28;20033;-43
2022/01/21 09:25:38;;;;;;;4.63;1.63;;;25.20;28.90;;;;;;5022403;28;20076;-42
2022/01/21 09:28:04;;;;;;;7.53;2.58;;;25.30;28.80;;;;;;5022091;28;20033;-42
2022/01/21 09:30:31;;;;;;;7.47;2.38;;;25.30;28.70;;;;;;5039141;28;20111;-43
2022/01/21 09:32:57;;;;;;;4.57;1.63;;;25.20;28.80;;;;;;5024261;28;20029;-42
2022/01/21 09:35:23;;;;;;;5.50;1.83;;;25.30;28.80;;;;;;5024118;28;20752;-41
2022/01/21 09:37:50;;;;;;;7.05;2.28;;;25.30;28.70;;;;;;5021489;28;20033;-42
2022/01/21 09:40:16;;;;;;;4.82;1.88;;;25.20;28.60;;;;;;5023132;28;20730;-42
2022/01/21 09:42:44;;;;;;;6.50;2.13;;;25.30;28.60;;;;;;5022908;28;20461;-41
2022/01/21 09:45:12;;;;;;;5.82;1.73;;;25.20;28.80;;;;;;5022107;28;20021;-42
2022/01/21 09:47:51;;;;;;;5.32;1.90;;;25.30;28.70;;;;;;5022798;28;20067;-42
2022/01/21 09:50:19;;;;;;;4.78;1.75;;;25.20;28.70;;;;;;5022753;28;20033;-42
2022/01/21 09:52:50;;;;;;;5.07;1.58;;;25.20;28.70;;;;;;5023578;28;20029;-42
2022/01/21 09:55:20;;;;;;;4.10;1.45;;;25.30;28.70;;;;;;5024278;28;20034;-42
2022/01/21 09:57:51;;;;;;;2.90;1.13;;;25.20;28.60;;;;;;5024143;28;20033;-42
2022/01/21 10:00:18;;;;;;;4.30;1.60;;;25.30;28.60;;;;;;5024320;28;20033;-42
2022/01/21 10:02:45;;;;;;;4.70;1.65;;;25.30;28.70;;;;;;5024688;28;20095;-40
2022/01/21 10:05:12;;;;;;;4.50;1.42;;;25.20;28.70;;;;;;5024626;28;20107;-41
2022/01/21 10:07:44;;;;;;;3.17;1.30;;;25.20;28.60;;;;;;5039331;28;20033;-42
2022/01/21 10:10:10;;;;;;;4.45;1.50;;;25.20;28.70;;;;;;5006963;28;20018;-42
2022/01/21 10:12:39;;;;;;;5.07;1.67;;;25.20;28.60;;;;;;5024341;28;20103;-41
2022/01/21 10:15:07;;;;;;;4.40;1.30;;;25.20;28.60;;;;;;5024249;28;20389;-42
2022/01/21 10:17:33;;;;;;;4.43;1.60;;;25.20;28.60;;;;;;5023751;28;20064;-42
2022/01/21 10:20:13;;;;;;;3.53;1.27;;;25.20;28.10;;;;;;5024304;28;20029;-43
2022/01/21 10:22:54;;;;;;;3.38;1.30;;;25.20;28.00;;;;;;5023965;28;20463;-42
2022/01/21 10:25:20;;;;;;;4.30;1.42;;;25.30;28.60;;;;;;5022022;28;20029;-42
2022/01/21 10:27:46;;;;;;;3.88;1.42;;;25.20;28.90;;;;;;5023363;28;20025;-42
2022/01/21 10:30:24;;;;;;;4.45;0.95;;;25.20;28.80;;;;;;5023030;28;20598;-39
2022/01/21 10:32:51;;;;;;;4.60;1.00;;;25.20;28.90;;;;;;5024966;28;20083;-42
2022/01/21 10:35:19;;;;;;;5.40;1.10;;;25.20;29.00;;;;;;5027239;28;20036;-43
2022/01/21 10:37:45;;;;;;;3.45;1.25;;;25.30;29.10;;;;;;5025112;28;20033;-43
2022/01/21 10:40:11;;;;;;;3.90;1.52;;;25.20;28.80;;;;;;5025262;28;20650;-43
2022/01/21 10:42:38;;;;;;;2.67;0.90;;;25.20;28.90;;;;;;5026363;28;20105;-43
2022/01/21 10:45:06;;;;;;;4.43;1.00;;;25.20;28.90;;;;;;5025519;28;20091;-43
2022/01/21 10:47:49;;;;;;;3.35;0.82;;;25.20;28.90;;;;;;5024720;28;20034;-42
2022/01/21 10:50:20;;;;;;;2.58;0.90;;;25.30;29.00;;;;;;5032581;28;20025;-42
2022/01/21 10:52:51;;;;;;;3.92;1.10;;;25.30;29.00;;;;;;5007783;28;20037;-42
2022/01/21 10:55:38;;;;;;;2.47;1.00;;;25.30;28.90;;;;;;5025542;28;20026;-42
2022/01/21 10:58:09;;;;;;;1.90;0.65;;;25.30;28.90;;;;;;5026658;28;20049;-42
2022/01/21 11:00:36;;;;;;;3.17;0.95;;;25.30;28.90;;;;;;5026091;28;20029;-42
2022/01/21 11:03:13;;;;;;;2.33;0.90;;;25.30;28.80;;;;;;5026207;28;20096;-42
2022/01/21 11:05:43;;;;;;;2.88;0.88;;;25.30;28.80;;;;;;5018085;28;20116;-42
2022/01/21 11:08:11;;;;;;;2.25;0.75;;;25.30;28.80;;;;;;5025376;28;20029;-42
2022/01/21 11:10:39;;;;;;;2.15;0.80;;;25.30;28.70;;;;;;5026304;28;20029;-42
2022/01/21 11:13:20;;;;;;;2.42;0.80;;;25.40;28.70;;;;;;5026155;28;20029;-43
2022/01/21 11:15:53;;;;;;;2.20;0.60;;;25.40;28.70;;;;;;5025954;28;20064;-42
2022/01/21 11:18:20;;;;;;;2.40;0.82;;;25.40;28.70;;;;;;5025672;28;20416;-43
2022/01/21 11:20:55;;;;;;;3.08;0.80;;;25.40;28.60;;;;;;5026302;28;20033;-42
2022/01/21 11:23:22;;;;;;;2.58;0.60;;;25.40;28.60;;;;;;5026063;28;20029;-42
2022/01/21 11:25:55;;;;;;;2.92;0.80;;;25.30;28.60;;;;;;5025273;28;20064;-42
2022/01/21 11:28:26;;;;;;;2.08;0.57;;;25.40;28.50;;;;;;5026258;28;20035;-44
2022/01/21 11:30:53;;;;;;;1.08;0.40;;;25.40;28.60;;;;;;5026258;28;20025;-41
2022/01/21 11:33:20;;;;;;;3.15;0.73;;;25.40;28.40;;;;;;5026082;28;20025;-42
2022/01/21 11:35:50;;;;;;;1.45;0.50;;;25.40;28.30;;;;;;5026142;28;20112;-43
2022/01/21 11:38:17;;;;;;;2.47;0.63;;;25.40;28.40;;;;;;5024562;28;20041;-42
2022/01/21 11:40:45;;;;;;;2.25;0.88;;;25.40;28.30;;;;;;5025682;28;20650;-42
2022/01/21 11:43:11;;;;;;;2.70;0.60;;;25.40;28.30;;;;;;5025665;28;20040;-42
2022/01/21 11:48:51;;;;;;;7.30;1.45;;;25.40;28.40;;;;;;5025294;28;20029;-42
2022/01/21 11:51:26;;;;;;;3.90;1.30;;;25.40;28.50;;;;;;5019736;28;20041;-42
2022/01/21 11:53:58;;;;;;;4.25;1.65;;;25.40;28.60;;;;;;5025124;28;20385;-42
2022/01/21 11:56:35;;;;;;;5.72;1.63;;;25.40;28.70;;;;;;5025514;28;20029;-42
2022/01/21 11:59:06;;;;;;;6.18;2.13;;;25.40;28.70;;;;;;5025460;28;20493;-42
2022/01/21 12:01:46;;;;;;;5.90;2.13;;;25.40;29.00;;;;;;5024998;28;20034;-42
2022/01/21 12:04:13;;;;;;;10.52;3.55;;;25.50;29.20;;;;;;5025060;28;20501;-42
2022/01/21 12:06:39;;;;;;;8.93;3.20;;;25.50;29.50;;;;;;5024459;28;20074;-42
2022/01/21 12:09:08;;;;;;;8.80;3.30;;;25.50;29.80;;;;;;5024993;28;20103;-42
2022/01/21 12:11:37;;;;;;;7.03;3.03;;;25.50;29.80;;;;;;5024880;28;20026;-42
2022/01/21 12:14:27;;;;;;;7.53;3.05;;;25.50;30.00;;;;;;5025381;28;20025;-43
2022/01/21 12:16:59;;;;;;;6.53;2.53;;;25.50;29.80;;;;;;5006665;28;20106;-42
2022/01/21 12:19:35;;;;;;;5.95;2.35;;;25.50;29.70;;;;;;5025576;28;20052;-43
2022/01/21 12:22:16;;;;;;;5.18;2.42;;;25.50;29.50;;;;;;5015379;28;20057;-42
2022/01/21 12:24:51;;;;;;;6.78;2.60;;;25.50;29.50;;;;;;5020735;28;20041;-43
2022/01/21 12:27:18;;;;;;;8.27;2.90;;;25.50;29.40;;;;;;5024171;28;20022;-43
2022/01/21 12:29:44;;;;;;;8.05;2.53;;;25.50;29.30;;;;;;5024606;28;20029;-43
2022/01/21 12:32:24;;;;;;;5.38;2.42;;;25.50;29.30;;;;;;5024584;28;20026;-42
2022/01/21 12:34:59;;;;;;;7.38;1.75;;;25.50;29.10;;;;;;5024861;28;20075;-42
2022/01/21 12:37:38;;;;;;;5.57;2.20;;;25.50;29.10;;;;;;5020167;28;20733;-42
2022/01/21 12:40:04;;;;;;;4.07;1.42;;;25.50;29.00;;;;;;5023180;28;20029;-42
2022/01/21 12:42:38;;;;;;;4.15;1.80;;;25.50;29.00;;;;;;5024675;28;20033;-42
2022/01/21 12:45:05;;;;;;;4.47;1.42;;;25.50;29.00;;;;;;5023986;28;20750;-42
2022/01/21 12:47:38;;;;;;;3.97;1.42;;;25.50;28.90;;;;;;5024137;28;20037;-42
2022/01/21 12:50:16;;;;;;;4.78;1.55;;;25.50;28.80;;;;;;5024340;28;20479;-42
2022/01/21 12:52:49;;;;;;;3.55;1.30;;;25.60;28.80;;;;;;5024482;28;20108;-42
2022/01/21 12:58:16;;;;;;;3.13;1.15;;;25.50;28.70;;;;;;5024878;28;20435;-42
2022/01/21 13:00:43;;;;;;;3.88;1.48;;;25.60;28.60;;;;;;5024621;28;20623;-42
2022/01/21 13:03:24;;;;;;;3.40;0.90;;;25.60;28.60;;;;;;5024112;28;20029;-42
2022/01/21 13:06:05;;;;;;;2.92;1.30;;;25.60;28.60;;;;;;5024115;28;20079;-42
2022/01/21 13:08:35;;;;;;;2.95;0.93;;;25.60;28.50;;;;;;5023866;28;20040;-42
2022/01/21 13:11:24;;;;;;;3.60;1.13;;;25.60;28.50;;;;;;5024052;28;20018;-42
2022/01/21 13:14:46;;;;;;;5.50;1.23;;;25.60;28.40;;;;;;5004091;28;20034;-42
2022/01/21 13:17:09;;;;;;;3.15;1.02;;;25.60;28.40;;;;;;5003570;28;20077;-42
2022/01/21 13:19:43;;;;;;;2.85;1.15;;;25.60;28.40;;;;;;5004040;28;20033;-42
2022/01/21 13:22:21;;;;;;;2.60;0.75;;;25.60;28.30;;;;;;5004483;28;20080;-42
2022/01/21 13:24:57;;;;;;;2.10;0.85;;;25.60;28.30;;;;;;5017528;28;20040;-43
2022/01/21 13:27:25;;;;;;;1.67;0.70;;;25.60;28.30;;;;;;5023265;28;20022;-42
2022/01/21 13:30:00;;;;;;;2.03;0.68;;;25.60;28.30;;;;;;5023483;28;20030;-42
2022/01/21 13:32:26;;;;;;;2.72;0.73;;;25.60;28.30;;;;;;5023914;28;20112;-42
2022/01/21 13:35:04;;;;;;;3.13;0.82;;;25.60;28.10;;;;;;5023001;28;20489;-42
2022/01/21 13:37:30;;;;;;;2.60;0.68;;;25.60;28.20;;;;;;5017946;28;20555;-42
2022/01/21 13:39:55;;;;;;;2.10;0.73;;;25.60;28.10;;;;;;5019725;28;20144;-45
2022/01/21 13:42:24;;;;;;;1.83;0.60;;;25.60;28.10;;;;;;5022463;28;20039;-43
2022/01/21 13:44:49;;;;;;;1.70;0.68;;;25.60;28.10;;;;;;5022883;28;20056;-43
2022/01/21 13:47:33;;;;;;;3.28;1.10;;;25.60;28.00;;;;;;5023054;28;20446;-42